createdAt,value
2018-09-19T10:27:36.566Z,0
2018-09-19T10:30:10.798Z,4.5
2018-09-19T10:32:28.620Z,11.4
2018-09-19T10:33:10.851Z,10.9
2018-09-19T10:34:10.916Z,11.8
2018-09-19T10:35:11.008Z,10.2
2018-09-19T10:36:11.026Z,10.1
2018-09-19T10:37:11.427Z,10.3
2018-09-19T10:38:11.397Z,10.4
2018-09-19T10:39:11.421Z,10.2
2018-09-19T10:40:11.532Z,10.9
2018-09-19T10:41:11.439Z,10.2
2018-09-19T10:42:11.640Z,10.5
2018-09-19T10:43:11.646Z,10.6
2018-09-19T10:44:11.902Z,10.4
2018-09-19T10:45:30.632Z,9.1
2018-09-19T10:46:12.188Z,9.2
2018-09-19T10:47:11.954Z,10
2018-09-19T10:48:11.845Z,9.9
2018-09-19T10:49:12.152Z,10.9
2018-09-19T10:50:11.827Z,10.4
2018-09-19T10:51:11.823Z,10.6
2018-09-19T10:52:11.895Z,10.1
2018-09-19T10:54:11.976Z,10.8
2018-09-19T10:55:11.986Z,11.6
2018-09-19T10:56:12.043Z,10.5
2018-09-19T10:57:12.157Z,11.2
2018-09-19T10:58:12.103Z,10
2018-09-19T10:59:12.388Z,10.1
2018-09-19T11:01:12.399Z,10.8
2018-09-19T11:02:12.367Z,10
2018-09-19T11:04:12.751Z,11.8
2018-09-19T11:05:12.775Z,11.9
2018-09-19T11:06:12.802Z,12.1
2018-09-19T11:07:30.839Z,11.2
2018-09-19T11:08:12.860Z,11.6
2018-09-19T11:09:12.902Z,11.3
2018-09-19T11:10:12.906Z,11.5
2018-09-19T11:11:12.982Z,11.4
2018-09-19T11:12:13.195Z,10.8
2018-09-19T11:13:13.028Z,11.5
2018-09-19T11:14:13.080Z,11.3
2018-09-19T11:15:13.141Z,11.6
2018-09-19T11:16:13.205Z,11.1
2018-09-19T11:17:13.282Z,11.7
2018-09-19T11:18:13.369Z,11.3
2018-09-19T11:19:13.336Z,10.9
2018-09-19T11:20:13.367Z,11.3
2018-09-19T11:21:13.588Z,11.3
2018-09-19T11:22:13.561Z,10.3
2018-09-19T11:23:13.561Z,9.7
2018-09-19T11:24:13.547Z,11
2018-09-19T11:25:13.893Z,10.9
2018-09-19T11:26:31.793Z,12.2
2018-09-19T11:27:13.851Z,10.4
2018-09-19T11:28:14.012Z,10.6
2018-09-19T11:29:14.192Z,10.5
2018-09-19T11:30:14.353Z,11.1
2018-09-19T11:31:32.138Z,9.9
2018-09-19T11:32:14.432Z,11.2
2018-09-19T11:33:14.428Z,10.5
2018-09-19T11:34:32.343Z,10.1
2018-09-19T11:35:14.499Z,10.2
2018-09-19T11:36:14.866Z,10.1
2018-09-19T11:37:33.605Z,9.4
2018-09-19T11:38:14.615Z,9
2018-09-19T11:39:14.777Z,9.3
2018-09-19T11:40:14.718Z,9.5
2018-09-19T11:41:14.836Z,9.6
2018-09-19T11:42:14.927Z,9.8
2018-09-19T11:43:15.032Z,9.6
2018-09-19T11:44:15.088Z,10
2018-09-19T11:45:15.240Z,10.3
2018-09-19T11:46:15.341Z,10.1
2018-09-19T11:47:15.715Z,9
2018-09-19T11:48:15.481Z,9.8
2018-09-19T11:49:15.757Z,10.3
2018-09-19T11:50:15.753Z,9.8
2018-09-19T11:51:15.684Z,9.9
2018-09-19T11:52:15.899Z,11
2018-09-19T11:53:15.933Z,11.4
2018-09-19T11:54:15.865Z,10.8
2018-09-19T11:55:15.837Z,10.4
2018-09-19T11:56:16.089Z,10.7
2018-09-19T11:57:16.279Z,10.4
2018-09-19T11:58:34.063Z,10.1
2018-09-19T11:59:16.226Z,10.4
2018-09-19T12:00:16.457Z,11
2018-09-19T12:01:16.431Z,11
2018-09-19T12:02:16.687Z,10.5
2018-09-19T12:03:16.531Z,10.1
2018-09-19T12:04:16.625Z,10.4
2018-09-19T12:05:16.890Z,11.2
2018-09-19T12:06:16.743Z,10.2
2018-09-19T12:07:16.878Z,10.6
2018-09-19T12:08:17.004Z,11.7
2018-09-19T12:09:16.965Z,10.8
2018-09-19T12:10:16.982Z,9.1
2018-09-19T12:11:17.067Z,10.7
2018-09-19T12:12:17.209Z,10.9
2018-09-19T12:13:17.426Z,11.3
2018-09-19T12:14:18.149Z,11.4
2018-09-19T12:15:17.310Z,10.7
2018-09-19T12:17:17.309Z,10.2
2018-09-19T12:18:17.470Z,10.6
2018-09-19T12:19:17.514Z,11
2018-09-19T12:20:17.490Z,11.5
2018-09-19T12:21:17.538Z,10.2
2018-09-19T12:22:17.620Z,11.6
2018-09-19T12:23:17.677Z,10.4
2018-09-19T12:24:17.704Z,10.7
2018-09-19T12:25:17.728Z,9.6
2018-09-19T12:26:18.749Z,11.6
2018-09-19T12:27:17.928Z,11.3
2018-09-19T12:28:18.127Z,11.1
2018-09-19T12:29:17.997Z,11.9
2018-09-19T12:30:18.130Z,9.7
2018-09-19T12:31:18.181Z,10.7
2018-09-19T12:32:18.292Z,10.4
2018-09-19T12:33:18.533Z,9.9
2018-09-19T12:34:18.508Z,10.1
2018-09-19T12:35:18.359Z,10.3
2018-09-19T12:36:18.352Z,8.9
2018-09-19T12:37:18.346Z,8.1
2018-09-19T12:38:18.386Z,9.1
2018-09-19T12:40:18.673Z,8.8
2018-09-19T12:42:18.646Z,7.8
2018-09-19T12:43:18.873Z,8.6
2018-09-19T12:44:18.927Z,8.1
2018-09-19T12:45:36.967Z,7.7
2018-09-19T12:46:18.984Z,8.3
2018-09-19T12:47:19.209Z,8.8
2018-09-19T12:48:19.273Z,8.1
2018-09-19T12:49:19.296Z,7.3
2018-09-19T12:50:19.219Z,8.6
2018-09-19T12:52:19.424Z,7.6
2018-09-19T12:53:19.523Z,7.7
2018-09-19T12:54:37.465Z,7.5
2018-09-19T12:55:37.522Z,7.7
2018-09-19T12:56:19.679Z,7.1
2018-09-19T12:57:19.833Z,8.3
2018-09-19T12:58:19.711Z,7.8
2018-09-19T12:59:19.828Z,7.3
2018-09-19T13:00:19.735Z,7.3
2018-09-19T13:01:19.746Z,6.9
2018-09-19T13:02:19.803Z,6.7
2018-09-19T13:04:20.063Z,5.5
2018-09-19T13:05:20.204Z,5.3
2018-09-19T13:06:20.153Z,5.4
2018-09-19T13:07:20.339Z,5
2018-09-19T13:08:20.276Z,5.7
2018-09-19T13:09:20.399Z,4.9
2018-09-19T13:10:20.486Z,5.6
2018-09-19T13:11:20.750Z,5.3
2018-09-19T13:12:20.585Z,4.7
2018-09-19T13:13:20.697Z,4.8
2018-09-19T13:14:20.750Z,5.1
2018-09-19T13:15:20.787Z,5.3
2018-09-19T13:16:20.988Z,5.2
2018-09-19T13:17:20.998Z,5.5
2018-09-19T13:18:21.052Z,5.8
2018-09-19T13:19:21.227Z,6.2
2018-09-19T13:20:21.755Z,6.2
2018-09-19T13:21:39.173Z,5.7
2018-09-19T13:22:21.196Z,5.8
2018-09-19T13:23:21.354Z,4.9
2018-09-19T13:24:21.331Z,5
2018-09-19T13:25:21.576Z,6
2018-09-19T13:26:21.580Z,5.8
2018-09-19T13:27:21.671Z,6.2
2018-09-19T13:28:21.666Z,5.1
2018-09-19T13:29:21.815Z,5.2
2018-09-19T13:32:39.942Z,5.4
2018-09-19T13:34:22.019Z,5.9
2018-09-19T13:35:22.115Z,6.4
2018-09-19T13:36:22.177Z,5.8
2018-09-19T13:37:22.477Z,5.7
2018-09-19T13:38:22.346Z,5.9
2018-09-19T13:39:22.498Z,6.1
2018-09-19T13:40:22.566Z,6.1
2018-09-19T13:41:21.687Z,6.1
2018-09-19T13:42:22.868Z,6
2018-09-19T13:43:23.028Z,5.8
2018-09-19T13:44:22.960Z,6.5
2018-09-19T13:45:23.147Z,6.1
2018-09-19T13:46:23.193Z,6
2018-09-19T13:47:23.010Z,6.5
2018-09-19T13:48:23.104Z,6.5
2018-09-19T13:49:23.254Z,5.6
2018-09-19T13:50:23.337Z,5.6
2018-09-19T13:51:23.210Z,5.8
2018-09-19T13:52:41.190Z,5.8
2018-09-19T13:54:23.231Z,5.4
2018-09-19T13:55:23.468Z,5.7
2018-09-19T13:56:23.438Z,5.8
2018-09-19T13:57:23.561Z,5.9
2018-09-19T13:58:23.623Z,6.3
2018-09-19T13:59:23.733Z,6.2
2018-09-19T14:00:24.747Z,5.9
2018-09-19T14:01:23.911Z,5.7
2018-09-19T14:02:24.282Z,5.5
2018-09-19T14:03:23.955Z,5.6
2018-09-19T14:04:24.132Z,5.5
2018-09-19T14:05:24.260Z,6
2018-09-19T14:06:24.113Z,5.7
2018-09-19T14:07:24.374Z,5.8
2018-09-19T14:08:42.145Z,5.8
2018-09-19T14:09:24.242Z,6.1
2018-09-19T14:10:24.513Z,5.7
2018-09-19T14:11:24.579Z,5.9
2018-09-19T14:12:25.046Z,6.1
2018-09-19T14:13:24.863Z,6.4
2018-09-19T14:14:24.856Z,6.2
2018-09-19T14:15:24.964Z,6.2
2018-09-19T14:17:24.942Z,5.7
2018-09-19T14:18:25.079Z,5.9
2018-09-19T14:19:25.263Z,6
2018-09-19T14:20:25.339Z,5.5
2018-09-19T14:21:25.358Z,5.9
2018-09-19T14:22:25.573Z,6.4
2018-09-19T14:23:25.414Z,5.9
2018-09-19T14:24:25.511Z,6.4
2018-09-19T14:25:25.634Z,6.5
2018-09-19T14:26:25.811Z,6.5
2018-09-19T14:27:25.770Z,7
2018-09-19T14:28:25.850Z,6.9
2018-09-19T14:29:25.957Z,6.8
2018-09-19T14:30:26.124Z,6.3
2018-09-19T14:31:26.078Z,7.5
2018-09-19T14:32:26.328Z,6.4
2018-09-19T14:33:26.156Z,7.2
2018-09-19T14:34:26.314Z,7.1
2018-09-19T14:35:26.401Z,6.5
2018-09-19T14:36:26.606Z,6.8
2018-09-19T14:37:26.491Z,6.6
2018-09-19T14:38:26.545Z,6.8
2018-09-19T14:39:26.536Z,6
2018-09-19T14:41:26.696Z,6.5
2018-09-19T14:42:26.932Z,6.2
2018-09-19T14:43:26.852Z,6.3
2018-09-19T14:46:07.637Z,6.5
2018-09-19T14:46:41.726Z,6.4
2018-09-19T14:49:04.683Z,6.6
2018-09-19T14:49:20.799Z,6.6
2018-09-19T14:52:00.296Z,6.8
2018-09-19T15:14:36.716Z,6.4
2018-09-19T15:22:20.678Z,7.2
2018-09-19T15:23:21.167Z,6.8
2018-09-19T15:24:21.035Z,6.4
2018-09-19T15:25:20.797Z,6.3
2018-09-19T15:26:39.021Z,6.5
2018-09-19T15:27:38.728Z,5.8
2018-09-19T15:28:21.015Z,5.8
2018-09-19T15:29:21.133Z,6.1
2018-09-19T15:30:21.291Z,5.7
2018-09-19T15:31:21.272Z,6.4
2018-09-19T15:32:21.395Z,6.1
2018-09-19T15:33:21.284Z,6.5
2018-09-19T15:34:21.415Z,6.1
2018-09-19T15:35:21.270Z,6.1
2018-09-19T15:36:21.417Z,5.4
2018-09-19T15:37:21.557Z,6.2
2018-09-19T15:38:21.733Z,5.4
2018-09-19T15:39:21.666Z,5.7
2018-09-19T15:41:22.061Z,5.6
2018-09-19T15:42:22.036Z,5.4
2018-09-19T15:43:22.023Z,5.3
2018-09-19T15:44:22.064Z,5.3
2018-09-19T15:45:22.054Z,5.4
2018-09-19T15:46:40.012Z,4.9
2018-09-19T15:47:22.180Z,4.9
2018-09-19T15:48:22.275Z,5
2018-09-19T15:49:40.226Z,5.2
2018-09-19T15:50:22.349Z,5
2018-09-19T15:51:40.441Z,4.9
2018-09-19T15:52:22.590Z,5.3
2018-09-19T15:53:22.662Z,5.2
2018-09-19T15:54:22.669Z,4.9
2018-09-19T15:57:03.497Z,4.8
2018-09-19T15:59:18.231Z,4.6
2018-09-19T15:59:34.355Z,4.8
2018-09-19T16:00:34.213Z,5.2
2018-09-19T16:01:52.327Z,5.4
2018-09-19T16:02:34.451Z,4.7
2018-09-19T16:04:52.292Z,5.4
2018-09-19T16:05:34.614Z,4.9
2018-09-19T16:06:34.766Z,5
2018-09-19T16:07:34.874Z,4.8
2018-09-19T16:08:34.894Z,4.8
2018-09-19T16:09:52.962Z,4.9
2018-09-19T16:10:35.062Z,5.1
2018-09-19T16:11:53.097Z,4.9
2018-09-19T16:12:35.223Z,5
2018-09-19T16:13:35.303Z,4.8
2018-09-19T16:14:53.147Z,5.2
2018-09-19T16:16:53.310Z,5.1
2018-09-19T16:17:35.682Z,4.9
2018-09-19T16:18:35.782Z,4.7
2018-09-19T16:25:40.763Z,4.7
2018-09-19T16:28:14.746Z,4.8
2018-09-19T16:28:56.919Z,4.8
2018-09-19T16:31:57.242Z,5.4
2018-09-19T16:33:15.141Z,4.7
2018-09-19T16:33:57.352Z,5.1
2018-09-19T16:34:57.369Z,4.9
2018-09-19T16:35:57.358Z,5.1
2018-09-19T16:37:15.334Z,5.4
2018-09-19T16:38:16.513Z,5.2
2018-09-19T16:40:39.079Z,4.7
2018-09-19T16:41:31.033Z,4.7
2018-09-19T16:41:55.222Z,4.8
2018-09-19T16:44:13.274Z,4.9
2018-09-19T16:45:55.997Z,5.3
2018-09-19T16:48:36.325Z,5
2018-09-19T16:52:13.661Z,5
2018-09-19T17:20:31.236Z,5
2018-09-19T17:21:47.324Z,5.5
2018-09-19T17:22:47.559Z,5.6
2018-09-19T17:24:05.448Z,5.5
2018-09-19T17:25:05.555Z,5.7
2018-09-19T17:25:47.942Z,6.1
2018-09-19T17:26:47.953Z,6.2
2018-09-19T17:27:47.899Z,5.5
2018-09-19T17:28:48.028Z,5.2
2018-09-19T17:30:06.205Z,5.7
2018-09-19T17:31:06.309Z,6.1
2018-09-19T17:32:06.286Z,5.9
2018-09-19T17:32:48.517Z,5.7
2018-09-19T17:34:06.510Z,5.9
2018-09-19T17:34:48.687Z,5.5
2018-09-19T17:36:06.563Z,5.4
2018-09-19T17:37:06.663Z,5.5
2018-09-19T17:37:49.027Z,5.7
2018-09-19T17:38:49.087Z,5.8
2018-09-19T17:40:07.030Z,5.3
2018-09-19T17:40:49.107Z,5.6
2018-09-19T17:42:07.294Z,5.8
2018-09-19T17:42:49.453Z,5.4
2018-09-19T17:43:49.453Z,5.2
2018-09-19T17:44:49.597Z,5.8
2018-09-19T17:45:49.769Z,6.7
2018-09-19T17:47:07.739Z,7.5
2018-09-19T17:47:49.791Z,8
2018-09-19T17:48:49.989Z,8
2018-09-19T17:49:50.118Z,7.4
2018-09-19T17:51:08.097Z,7.4
2018-09-19T17:51:50.224Z,7.1
2018-09-19T17:52:50.154Z,6.7
2018-09-19T17:53:50.328Z,7
2018-09-19T17:54:50.208Z,7
2018-09-19T17:55:50.365Z,8.2
2018-09-19T17:56:50.416Z,10.4
2018-09-19T17:58:50.473Z,9.6
2018-09-19T18:00:08.491Z,8.4
2018-09-19T18:01:08.748Z,8
2018-09-19T18:01:50.818Z,7.8
2018-09-19T18:02:50.691Z,7
2018-09-19T18:03:50.912Z,7
2018-09-19T18:04:50.934Z,7.3
2018-09-19T18:06:51.014Z,7.4
2018-09-19T18:07:51.229Z,7.5
2018-09-19T18:09:09.168Z,7.1
2018-09-19T18:09:51.304Z,6.8
2018-09-19T18:10:51.412Z,7.8
2018-09-19T18:11:51.543Z,7.5
2018-09-19T18:12:51.517Z,7.7
2018-09-19T18:14:09.390Z,7.8
2018-09-19T18:17:09.684Z,7.1
2018-09-19T18:18:51.913Z,7.3
2018-09-19T18:20:09.896Z,6.7
2018-09-19T18:20:52.000Z,7.5
2018-09-19T18:21:52.101Z,6.8
2018-09-19T18:23:52.415Z,7.2
2018-09-19T18:24:52.487Z,7.4
2018-09-19T18:25:52.442Z,7.3
2018-09-19T18:26:52.548Z,7.1
2018-09-19T18:28:10.510Z,7.6
2018-09-19T18:28:52.880Z,7.8
2018-09-19T18:29:52.889Z,7.7
2018-09-19T18:30:52.982Z,7.8
2018-09-19T18:31:53.193Z,8.5
2018-09-19T18:32:53.269Z,9.2
2018-09-19T18:35:33.808Z,9.2
2018-09-19T18:35:49.934Z,9.2
2018-09-19T18:37:07.955Z,10.7
2018-09-19T19:04:26.554Z,10.7
2018-09-19T19:05:26.344Z,8.6
2018-09-19T19:06:08.755Z,8
2018-09-19T19:07:26.415Z,7.5
2018-09-19T19:08:08.605Z,8.1
2018-09-19T19:09:26.540Z,7.4
2018-09-19T19:11:26.797Z,7.3
2018-09-19T19:12:08.941Z,7.6
2018-09-19T19:13:08.960Z,7.9
2018-09-19T19:14:26.870Z,7.2
2018-09-19T19:15:26.969Z,7.4
2018-09-19T19:16:09.119Z,7.4
2018-09-19T19:17:09.185Z,7
2018-09-19T19:18:09.204Z,7.8
2018-09-19T19:19:27.317Z,8.1
2018-09-19T19:20:09.265Z,7.4
2018-09-19T19:22:27.501Z,7.2
2018-09-19T19:23:27.735Z,7.6
2018-09-19T19:24:27.631Z,9
2018-09-19T19:25:27.872Z,9.1
2018-09-19T19:26:27.802Z,8.9
2018-09-19T19:28:09.999Z,8.1
2018-09-19T19:29:10.068Z,7.9
2018-09-19T19:30:10.295Z,7.9
2018-09-19T19:31:45.997Z,9
2018-09-19T19:32:10.386Z,8.8
2018-09-19T19:33:28.303Z,8.7
2018-09-19T19:34:10.512Z,7.8
2018-09-19T19:35:28.436Z,8.2
2018-09-19T19:36:28.691Z,8.5
2018-09-19T19:37:10.723Z,7.6
2018-09-19T19:38:28.604Z,6.9
2018-09-19T19:39:10.821Z,8.6
2018-09-19T19:40:10.819Z,8.1
2018-09-19T19:41:10.894Z,8.4
2018-09-19T19:42:11.133Z,8.4
2018-09-19T19:43:11.253Z,8.5
2018-09-19T19:44:11.227Z,8.7
2018-09-19T19:45:11.286Z,8.6
2018-09-19T19:46:11.396Z,8.3
2018-09-19T19:47:11.667Z,8
2018-09-19T19:48:29.515Z,8.2
2018-09-19T19:49:29.685Z,7.6
2018-09-19T19:50:29.717Z,7.9
2018-09-19T19:52:29.893Z,7.5
2018-09-19T19:53:30.305Z,7.3
2018-09-19T19:54:30.136Z,7.6
2018-09-19T19:55:30.019Z,7.7
2018-09-19T19:56:12.157Z,8.6
2018-09-19T19:57:12.273Z,9.8
2018-09-19T19:58:12.574Z,9.2
2018-09-19T19:59:12.621Z,8.6
2018-09-19T20:00:12.458Z,8.1
2018-09-19T20:01:12.810Z,7.6
2018-09-19T20:02:12.716Z,7.6
2018-09-19T20:03:30.730Z,7.5
2018-09-19T20:04:12.923Z,7.3
2018-09-19T20:06:13.200Z,7.6
2018-09-19T20:08:13.415Z,7.1
2018-09-19T20:09:31.440Z,7.3
2018-09-19T20:10:13.592Z,7.4
2018-09-19T20:11:31.447Z,7.4
2018-09-19T20:12:31.561Z,7.8
2018-09-19T20:13:13.859Z,7.6
2018-09-19T20:14:13.907Z,7.4
2018-09-19T20:16:13.911Z,7.8
2018-09-19T20:18:14.119Z,7.6
2018-09-19T20:19:14.189Z,8.1
2018-09-19T20:20:14.292Z,7.9
2018-09-19T20:21:14.333Z,7.9
2018-09-19T20:23:14.510Z,7.4
2018-09-19T20:24:32.433Z,7.7
2018-09-19T20:25:14.653Z,7.3
2018-09-19T20:26:32.974Z,7.8
2018-09-19T20:27:14.743Z,7.9
2018-09-19T20:28:32.832Z,8.4
2018-09-19T20:29:14.965Z,7.6
2018-09-19T20:31:33.035Z,8.2
2018-09-19T20:32:50.915Z,7.6
2018-09-19T20:33:33.085Z,7.9
2018-09-19T20:34:15.512Z,7.9
2018-09-19T20:35:33.334Z,8
2018-09-19T20:36:33.496Z,7.4
2018-09-19T20:37:15.632Z,8
2018-09-19T20:38:15.800Z,7.9
2018-09-19T20:39:33.681Z,8.6
2018-09-19T20:40:15.782Z,8.6
2018-09-19T20:41:33.931Z,8.1
2018-09-19T20:42:34.058Z,8.4
2018-09-19T20:43:16.046Z,8.2
2018-09-19T20:44:16.197Z,8.3
2018-09-19T20:45:16.312Z,8.2
2018-09-19T20:46:16.308Z,8.1
2018-09-19T20:47:16.258Z,8.4
2018-09-19T20:48:34.391Z,8.4
2018-09-19T20:49:16.610Z,8.6
2018-09-19T20:50:16.676Z,8.4
2018-09-19T20:51:16.627Z,8.4
2018-09-19T20:52:16.755Z,8.7
2018-09-19T20:53:34.891Z,8.5
2018-09-19T20:54:16.914Z,8.1
2018-09-19T20:56:17.152Z,9.1
2018-09-19T20:57:35.057Z,8.3
2018-09-19T20:58:17.237Z,8.6
2018-09-19T20:59:17.348Z,8.7
2018-09-19T21:00:35.430Z,8.8
2018-09-19T21:01:35.309Z,8.8
2018-09-19T21:02:17.455Z,8.5
2018-09-19T21:03:17.562Z,9.4
2018-09-19T21:04:35.678Z,8.9
2018-09-19T21:05:17.938Z,9.2
2018-09-19T21:06:35.805Z,8.4
2018-09-19T21:07:35.950Z,9.8
2018-09-19T21:11:18.325Z,9.1
2018-09-19T21:12:36.288Z,9.5
2018-09-19T21:14:18.629Z,9.1
2018-09-19T21:15:18.800Z,9.4
2018-09-19T21:18:18.945Z,9.2
2018-09-19T21:19:19.061Z,9.4
2018-09-19T21:21:37.529Z,9
2018-09-19T21:22:19.541Z,8.8
2018-09-19T21:23:19.670Z,9.2
2018-09-19T21:24:19.524Z,9.7
2018-09-19T21:25:19.575Z,9.4
2018-09-19T21:26:19.494Z,9.5
2018-09-19T21:27:37.518Z,8.7
2018-09-19T21:28:19.994Z,8.9
2018-09-19T21:30:20.074Z,8.7
2018-09-19T21:31:20.143Z,8.1
2018-09-19T21:32:20.169Z,8.9
2018-09-19T21:33:20.470Z,8.1
2018-09-19T21:34:20.114Z,8.5
2018-09-19T21:35:20.225Z,8.7
2018-09-19T21:36:38.108Z,8.4
2018-09-19T21:37:20.251Z,8.8
2018-09-19T21:40:18.936Z,8.5
2018-09-19T21:40:52.942Z,8.9
2018-09-19T21:41:35.133Z,8.5
2018-09-19T21:42:35.191Z,8.7
2018-09-19T21:43:35.375Z,8.6
2018-09-19T21:45:11.487Z,8.3
2018-09-19T21:45:35.511Z,8.6
2018-09-19T21:46:53.507Z,9.2
2018-09-19T21:47:35.613Z,8.6
2018-09-19T21:48:35.776Z,8.1
2018-09-19T21:49:35.738Z,8.8
2018-09-19T21:50:35.738Z,9.1
2018-09-19T21:51:35.853Z,9.1
2018-09-19T21:52:36.069Z,8.4
2018-09-19T21:53:36.010Z,8.9
2018-09-19T21:54:36.076Z,8.8
2018-09-19T22:08:49.364Z,8.8
2018-09-19T22:09:05.313Z,8.7
2018-09-19T22:10:05.309Z,8.8
2018-09-19T22:11:05.623Z,8.6
2018-09-19T22:12:05.606Z,9.1
2018-09-19T22:13:05.677Z,8.9
2018-09-19T22:14:23.630Z,8.6
2018-09-19T22:15:05.962Z,8.1
2018-09-19T22:16:05.929Z,8.6
2018-09-19T22:17:05.998Z,8.9
2018-09-19T22:18:06.068Z,9
2018-09-19T22:19:06.193Z,9.1
2018-09-19T22:20:06.113Z,9.1
2018-09-19T22:21:06.328Z,8.6
2018-09-19T22:22:06.461Z,8
2018-09-19T22:23:06.652Z,8.4
2018-09-19T22:24:06.580Z,8.8
2018-09-19T22:25:06.616Z,8.9
2018-09-19T22:26:07.596Z,8.6
2018-09-19T22:27:06.841Z,8.3
2018-09-19T22:28:07.918Z,8.9
2018-09-19T22:29:24.858Z,8.4
2018-09-19T22:30:07.124Z,8.1
2018-09-19T22:31:07.230Z,8.4
2018-09-19T22:32:25.302Z,8.3
2018-09-19T22:33:07.224Z,8.8
2018-09-19T22:34:07.344Z,8.9
2018-09-19T22:35:25.340Z,7.8
2018-09-19T22:36:07.411Z,8.4
2018-09-19T22:37:07.439Z,9
2018-09-19T22:38:07.534Z,8.9
2018-09-19T22:39:07.696Z,8.1
2018-09-19T22:40:07.844Z,8.6
2018-09-19T22:41:07.757Z,8.5
2018-09-19T22:42:07.852Z,12.9
2018-09-19T22:43:08.021Z,11.1
2018-09-19T22:44:07.902Z,9.8
2018-09-19T22:45:08.072Z,8.8
2018-09-19T22:46:26.151Z,9.1
2018-09-19T22:47:08.266Z,8.8
2018-09-19T22:48:08.266Z,9
2018-09-19T22:49:08.256Z,8
2018-09-19T22:50:08.366Z,8.6
2018-09-19T22:51:08.432Z,8.7
2018-09-19T22:52:08.391Z,8.5
2018-09-19T22:53:08.491Z,8.2
2018-09-19T22:54:08.595Z,8.6
2018-09-19T22:55:08.801Z,8.3
2018-09-19T22:56:08.681Z,9.1
2018-09-19T22:57:08.819Z,8.8
2018-09-19T22:58:26.756Z,8.2
2018-09-19T22:59:08.942Z,8.4
2018-09-19T23:00:08.966Z,8.5
2018-09-19T23:01:08.956Z,8.7
2018-09-19T23:02:08.980Z,7.8
2018-09-19T23:03:09.020Z,8.1
2018-09-19T23:04:09.131Z,7.9
2018-09-19T23:05:09.219Z,8.3
2018-09-19T23:06:09.087Z,8.2
2018-09-19T23:07:09.173Z,8.3
2018-09-19T23:08:10.187Z,8.5
2018-09-19T23:09:09.338Z,8.2
2018-09-19T23:10:27.236Z,8
2018-09-19T23:11:28.362Z,8.1
2018-09-19T23:12:27.550Z,8.2
2018-09-19T23:13:09.674Z,8.1
2018-09-19T23:14:09.705Z,8.3
2018-09-19T23:15:09.827Z,8.8
2018-09-19T23:16:27.870Z,8.4
2018-09-19T23:17:10.064Z,8.5
2018-09-19T23:18:10.062Z,8.1
2018-09-19T23:19:10.083Z,8.1
2018-09-19T23:20:28.061Z,8.2
2018-09-19T23:22:10.270Z,8.5
2018-09-19T23:23:10.454Z,8.7
2018-09-19T23:24:10.525Z,8.5
2018-09-19T23:25:10.438Z,8.7
2018-09-19T23:26:10.463Z,8.4
2018-09-19T23:28:10.594Z,7.9
2018-09-19T23:29:10.618Z,8.1
2018-09-19T23:30:10.665Z,8.7
2018-09-19T23:31:10.752Z,7.9
2018-09-19T23:32:11.971Z,8.5
2018-09-19T23:34:11.010Z,8
2018-09-19T23:35:11.140Z,8.4
2018-09-19T23:36:12.198Z,8.3
2018-09-19T23:37:11.349Z,8
2018-09-19T23:38:11.327Z,7.8
2018-09-19T23:39:11.599Z,8.2
2018-09-19T23:40:11.606Z,8.4
2018-09-19T23:41:11.512Z,7.7
2018-09-19T23:42:12.516Z,7.9
2018-09-19T23:43:11.712Z,7.7
2018-09-19T23:44:11.740Z,7.9
2018-09-19T23:45:11.746Z,7.4
2018-09-19T23:46:11.915Z,8.4
2018-09-19T23:47:12.161Z,7.3
2018-09-19T23:48:12.117Z,7.9
2018-09-19T23:49:12.234Z,7.8
2018-09-19T23:50:12.315Z,7.3
2018-09-19T23:51:12.408Z,7.7
2018-09-19T23:52:12.462Z,7.5
2018-09-19T23:53:12.427Z,7.9
2018-09-19T23:54:12.627Z,7.2
2018-09-19T23:55:12.757Z,8.2
2018-09-19T23:57:12.854Z,7.6
2018-09-19T23:58:30.788Z,7.4
2018-09-19T23:59:12.999Z,8.1
